Time,TemperatureF,DewpointF,PressureIn,WindDirection,WindDirectionDegrees,WindSpeedMPH,WindSpeedGustMPH,Humidity,HourlyPrecipIn,Conditions,Clouds,dailyrainin,SolarRadiationWatts/m^2,SoftwareType,DateUTC
2013-04-18 00:02:00,58.0,9.0,-100.00,NW,314,10.0,17.0,14,0.00,,,0.00,1.000000,,2013-04-18 07:02:00,
2013-04-18 00:32:00,53.0,7.0,-100.00,North,11,3.0,16.0,15,0.00,,,0.00,1.000000,,2013-04-18 07:32:00,
2013-04-18 00:42:00,53.0,7.0,-100.00,North,11,3.0,16.0,15,0.00,,,0.00,1.000000,,2013-04-18 07:42:00,
2013-04-18 00:52:00,53.0,7.0,-100.00,North,11,3.0,16.0,15,0.00,,,0.00,1.000000,,2013-04-18 07:52:00,
2013-04-18 01:02:00,53.0,7.0,-100.00,North,11,3.0,16.0,15,0.00,,,0.00,1.000000,,2013-04-18 08:02:00,
2013-04-18 01:32:00,49.0,10.0,-100.00,SW,231,3.0,11.0,20,0.00,,,0.00,1.000000,,2013-04-18 08:32:00,
2013-04-18 01:42:00,49.0,10.0,-100.00,SW,231,3.0,11.0,20,0.00,,,0.00,1.000000,,2013-04-18 08:42:00,
2013-04-18 01:52:00,49.0,10.0,-100.00,SW,231,3.0,11.0,20,0.00,,,0.00,1.000000,,2013-04-18 08:52:00,
2013-04-18 02:02:00,49.0,10.0,-100.00,SW,231,3.0,11.0,20,0.00,,,0.00,1.000000,,2013-04-18 09:02:00,
2013-04-18 02:33:00,47.0,9.0,-100.00,SSE,158,4.0,8.0,21,0.00,,,0.00,1.000000,,2013-04-18 09:33:00,
2013-04-18 02:43:00,47.0,9.0,-100.00,SSE,158,4.0,8.0,21,0.00,,,0.00,1.000000,,2013-04-18 09:43:00,
2013-04-18 02:53:00,47.0,9.0,-100.00,SSE,158,4.0,8.0,21,0.00,,,0.00,1.000000,,2013-04-18 09:53:00,
2013-04-18 03:03:00,47.0,9.0,-100.00,SSE,158,4.0,8.0,21,0.00,,,0.00,1.000000,,2013-04-18 10:03:00,
2013-04-18 03:33:00,41.0,9.0,-100.00,SE,141,2.0,5.0,26,0.00,,,0.00,1.000000,,2013-04-18 10:33:00,
2013-04-18 03:42:00,41.0,9.0,-100.00,SE,141,2.0,5.0,26,0.00,,,0.00,1.000000,,2013-04-18 10:42:00,
2013-04-18 03:52:00,41.0,9.0,-100.00,SE,141,2.0,5.0,26,0.00,,,0.00,1.000000,,2013-04-18 10:52:00,
2013-04-18 04:02:00,41.0,9.0,-100.00,SE,141,2.0,5.0,26,0.00,,,0.00,1.000000,,2013-04-18 11:02:00,
2013-04-18 04:32:00,38.0,9.0,-100.00,WSW,239,1.0,3.0,29,0.00,,,0.00,1.000000,,2013-04-18 11:32:00,
2013-04-18 05:32:00,39.0,9.0,-100.00,NE,47,2.0,5.0,29,0.00,,,0.00,0.000000,,2013-04-18 12:32:00,
2013-04-18 05:42:00,39.0,9.0,-100.00,NE,47,2.0,5.0,29,0.00,,,0.00,0.000000,,2013-04-18 12:42:00,
2013-04-18 05:52:00,39.0,9.0,-100.00,NE,47,2.0,5.0,29,0.00,,,0.00,0.000000,,2013-04-18 12:52:00,
2013-04-18 06:02:00,39.0,9.0,-100.00,NE,47,2.0,5.0,29,0.00,,,0.00,0.000000,,2013-04-18 13:02:00,
2013-04-18 06:33:00,37.0,9.0,-100.00,North,11,3.0,6.0,31,0.00,,,0.00,3.000000,,2013-04-18 13:33:00,
2013-04-18 06:42:00,37.0,9.0,-100.00,North,11,3.0,6.0,31,0.00,,,0.00,3.000000,,2013-04-18 13:42:00,
2013-04-18 06:52:00,37.0,9.0,-100.00,North,11,3.0,6.0,31,0.00,,,0.00,3.000000,,2013-04-18 13:52:00,
2013-04-18 07:02:00,37.0,9.0,-100.00,North,11,3.0,6.0,31,0.00,,,0.00,3.000000,,2013-04-18 14:02:00,
2013-04-18 07:33:00,51.0,16.0,-100.00,WNW,300,2.0,6.0,24,-99.99,,,0.00,114.000000,,2013-04-18 14:33:00,
2013-04-18 07:43:00,51.0,16.0,-100.00,WNW,300,2.0,6.0,24,-99.99,,,0.00,114.000000,,2013-04-18 14:43:00,
2013-04-18 07:52:00,51.0,16.0,-100.00,WNW,300,2.0,6.0,24,-99.99,,,0.00,114.000000,,2013-04-18 14:52:00,
2013-04-18 08:02:00,51.0,16.0,-100.00,WNW,300,2.0,6.0,24,-99.99,,,0.00,114.000000,,2013-04-18 15:02:00,
2013-04-18 08:33:00,58.0,11.0,-100.00,East,92,2.0,5.0,15,0.00,,,0.00,334.000000,,2013-04-18 15:33:00,
2013-04-18 08:43:00,58.0,11.0,-100.00,East,92,2.0,5.0,15,0.00,,,0.00,334.000000,,2013-04-18 15:43:00,
2013-04-18 08:53:00,58.0,11.0,-100.00,East,92,2.0,5.0,15,0.00,,,0.00,334.000000,,2013-04-18 15:53:00,
2013-04-18 09:03:00,58.0,11.0,-100.00,East,92,2.0,5.0,15,0.00,,,0.00,334.000000,,2013-04-18 16:03:00,
2013-04-18 09:33:00,61.0,11.0,-100.00,South,177,3.0,8.0,14,0.00,,,0.00,549.000000,,2013-04-18 16:33:00,
2013-04-18 09:43:00,61.0,11.0,-100.00,South,177,3.0,8.0,14,0.00,,,0.00,549.000000,,2013-04-18 16:43:00,
2013-04-18 09:53:00,61.0,11.0,-100.00,South,177,3.0,8.0,14,0.00,,,0.00,549.000000,,2013-04-18 16:53:00,
2013-04-18 10:02:00,61.0,11.0,-100.00,South,177,3.0,8.0,14,0.00,,,0.00,549.000000,,2013-04-18 17:02:00,
2013-04-18 10:33:00,63.0,11.0,-100.00,SSW,205,5.0,9.0,13,0.00,,,0.00,739.000000,,2013-04-18 17:33:00,
2013-04-18 10:43:00,63.0,11.0,-100.00,SSW,205,5.0,9.0,13,0.00,,,0.00,739.000000,,2013-04-18 17:43:00,
2013-04-18 10:52:00,63.0,11.0,-100.00,SSW,205,5.0,9.0,13,0.00,,,0.00,739.000000,,2013-04-18 17:52:00,
2013-04-18 11:02:00,63.0,11.0,-100.00,SSW,205,5.0,9.0,13,0.00,,,0.00,739.000000,,2013-04-18 18:02:00,
2013-04-18 11:33:00,66.0,12.0,-100.00,SSE,154,7.0,11.0,12,0.00,,,0.00,881.000000,,2013-04-18 18:33:00,
2013-04-18 11:43:00,66.0,12.0,-100.00,SSE,154,7.0,11.0,12,0.00,,,0.00,881.000000,,2013-04-18 18:43:00,
2013-04-18 11:52:00,66.0,12.0,-100.00,SSE,154,7.0,11.0,12,0.00,,,0.00,881.000000,,2013-04-18 18:52:00,
2013-04-18 12:02:00,66.0,12.0,-100.00,SSE,154,7.0,11.0,12,0.00,,,0.00,881.000000,,2013-04-18 19:02:00,
2013-04-18 12:32:00,68.0,9.0,-100.00,East,100,5.0,12.0,10,0.00,,,0.00,966.000000,,2013-04-18 19:32:00,
2013-04-18 12:42:00,68.0,9.0,-100.00,East,100,5.0,12.0,10,0.00,,,0.00,966.000000,,2013-04-18 19:42:00,
2013-04-18 12:52:00,68.0,9.0,-100.00,East,100,5.0,12.0,10,0.00,,,0.00,966.000000,,2013-04-18 19:52:00,
2013-04-18 13:02:00,68.0,9.0,-100.00,East,100,5.0,12.0,10,0.00,,,0.00,966.000000,,2013-04-18 20:02:00,
2013-04-18 13:32:00,70.0,6.0,-100.00,SSW,203,6.0,13.0,8,0.00,,,0.00,990.000000,,2013-04-18 20:32:00,
2013-04-18 13:42:00,70.0,6.0,-100.00,SSW,203,6.0,13.0,8,0.00,,,0.00,990.000000,,2013-04-18 20:42:00,
2013-04-18 13:52:00,70.0,6.0,-100.00,SSW,203,6.0,13.0,8,0.00,,,0.00,990.000000,,2013-04-18 20:52:00,
2013-04-18 14:02:00,70.0,6.0,-100.00,SSW,203,6.0,13.0,8,0.00,,,0.00,990.000000,,2013-04-18 21:02:00,
2013-04-18 15:33:00,72.0,7.0,-100.00,SE,143,8.0,17.0,8,-99.99,,,0.00,839.000000,,2013-04-18 22:33:00,
2013-04-18 15:42:00,72.0,7.0,-100.00,SE,143,8.0,17.0,8,-99.99,,,0.00,839.000000,,2013-04-18 22:42:00,
2013-04-18 15:52:00,72.0,7.0,-100.00,SE,143,8.0,17.0,8,-99.99,,,0.00,839.000000,,2013-04-18 22:52:00,
2013-04-18 16:03:00,72.0,7.0,-100.00,SE,143,8.0,17.0,8,-99.99,,,0.00,839.000000,,2013-04-18 23:03:00,
2013-04-18 16:32:00,72.0,5.0,-100.00,SW,222,6.0,16.0,7,0.00,,,0.00,673.000000,,2013-04-18 23:32:00,
2013-04-18 16:42:00,72.0,5.0,-100.00,SW,222,6.0,16.0,7,0.00,,,0.00,673.000000,,2013-04-18 23:42:00,
2013-04-18 16:52:00,72.0,5.0,-100.00,SW,222,6.0,16.0,7,0.00,,,0.00,673.000000,,2013-04-18 23:52:00,
2013-04-18 17:01:00,72.0,5.0,-100.00,SW,222,6.0,16.0,7,0.00,,,0.00,673.000000,,2013-04-19 00:01:00,
2013-04-18 17:32:00,71.0,4.0,-100.00,SSE,168,6.0,16.0,7,0.00,,,0.00,468.000000,,2013-04-19 00:32:00,
2013-04-18 17:42:00,71.0,4.0,-100.00,SSE,168,6.0,16.0,7,0.00,,,0.00,468.000000,,2013-04-19 00:42:00,
2013-04-18 17:51:00,71.0,4.0,-100.00,SSE,168,6.0,16.0,7,0.00,,,0.00,468.000000,,2013-04-19 00:51:00,
2013-04-18 18:01:00,71.0,4.0,-100.00,SSE,168,6.0,16.0,7,0.00,,,0.00,468.000000,,2013-04-19 01:01:00,
2013-04-18 18:32:00,72.0,7.0,-100.00,WSW,258,3.0,16.0,8,0.00,,,0.00,248.000000,,2013-04-19 01:32:00,
2013-04-18 18:42:00,72.0,7.0,-100.00,WSW,258,3.0,16.0,8,0.00,,,0.00,248.000000,,2013-04-19 01:42:00,
2013-04-18 18:52:00,72.0,7.0,-100.00,WSW,258,3.0,16.0,8,0.00,,,0.00,248.000000,,2013-04-19 01:52:00,
2013-04-18 19:01:00,72.0,7.0,-100.00,WSW,258,3.0,16.0,8,0.00,,,0.00,248.000000,,2013-04-19 02:01:00,
2013-04-18 19:32:00,64.0,4.0,-100.00,NE,56,3.0,12.0,9,0.00,,,0.00,51.000000,,2013-04-19 02:32:00,
2013-04-18 19:42:00,64.0,4.0,-100.00,NE,56,3.0,12.0,9,0.00,,,0.00,51.000000,,2013-04-19 02:42:00,
2013-04-18 19:52:00,64.0,4.0,-100.00,NE,56,3.0,12.0,9,0.00,,,0.00,51.000000,,2013-04-19 02:52:00,
2013-04-18 20:01:00,64.0,4.0,-100.00,NE,56,3.0,12.0,9,0.00,,,0.00,51.000000,,2013-04-19 03:01:00,
2013-04-18 20:33:00,62.0,3.0,-100.00,WNW,299,3.0,12.0,9,0.00,,,0.00,1.000000,,2013-04-19 03:33:00,
2013-04-18 21:33:00,55.0,7.0,-100.00,SE,130,2.0,6.0,14,0.00,,,0.00,1.000000,,2013-04-19 04:33:00,
2013-04-18 21:43:00,55.0,7.0,-100.00,SE,130,2.0,6.0,14,0.00,,,0.00,1.000000,,2013-04-19 04:43:00,
2013-04-18 21:52:00,55.0,7.0,-100.00,SE,130,2.0,6.0,14,0.00,,,0.00,1.000000,,2013-04-19 04:52:00,
2013-04-18 22:03:00,55.0,7.0,-100.00,SE,130,2.0,6.0,14,0.00,,,0.00,1.000000,,2013-04-19 05:03:00,
2013-04-18 22:32:00,50.0,7.0,-100.00,East,87,3.0,6.0,17,0.00,,,0.00,1.000000,,2013-04-19 05:32:00,
2013-04-18 22:42:00,50.0,7.0,-100.00,East,87,3.0,6.0,17,0.00,,,0.00,1.000000,,2013-04-19 05:42:00,
2013-04-18 22:52:00,50.0,7.0,-100.00,East,87,3.0,6.0,17,0.00,,,0.00,1.000000,,2013-04-19 05:52:00,
2013-04-18 23:01:00,50.0,7.0,-100.00,East,87,3.0,6.0,17,0.00,,,0.00,1.000000,,2013-04-19 06:01:00,
2013-04-18 23:32:00,53.0,8.0,-100.00,NE,46,3.0,6.0,16,0.00,,,0.00,1.000000,,2013-04-19 06:32:00,
2013-04-18 23:42:00,53.0,8.0,-100.00,NE,46,3.0,6.0,16,0.00,,,0.00,1.000000,,2013-04-19 06:42:00,
2013-04-18 23:53:00,53.0,8.0,-100.00,NE,46,3.0,6.0,16,0.00,,,0.00,1.000000,,2013-04-19 06:53:00,